createdAt,value
2023-03-19T00:02:52.058Z,12.27
2023-03-19T00:06:54.797Z,10.93
2023-03-19T00:10:56.639Z,11.10
2023-03-19T00:14:58.468Z,11.67
2023-03-19T00:19:00.301Z,11.10
2023-03-19T00:23:02.085Z,11.47
2023-03-19T00:27:04.323Z,11.70
2023-03-19T00:31:12.190Z,11.13
2023-03-19T00:35:14.827Z,10.90
2023-03-19T00:39:16.706Z,11.27
2023-03-19T00:43:18.549Z,11.47
2023-03-19T00:47:20.513Z,11.47
2023-03-19T00:51:23.665Z,11.00
2023-03-19T00:55:27.357Z,12.03
2023-03-19T00:59:29.248Z,11.93
2023-03-19T01:03:32.234Z,11.30
2023-03-19T01:07:34.021Z,11.20
2023-03-19T01:11:36.257Z,10.87
2023-03-19T01:15:43.232Z,11.43
2023-03-19T01:19:45.045Z,11.40
2023-03-19T01:23:46.895Z,11.00
2023-03-19T01:27:48.837Z,11.73
2023-03-19T01:31:51.374Z,11.47
2023-03-19T01:35:53.507Z,11.43
2023-03-19T01:39:55.359Z,12.10
2023-03-19T01:43:57.277Z,11.23
2023-03-19T01:47:59.164Z,10.43
2023-03-19T01:52:02.713Z,11.67
2023-03-19T01:56:14.946Z,11.33
2023-03-19T02:00:17.236Z,10.77
2023-03-19T02:04:19.299Z,11.53
2023-03-19T02:08:23.123Z,11.23
2023-03-19T02:12:24.996Z,11.17
2023-03-19T02:16:27.246Z,11.47
2023-03-19T02:20:59.533Z,10.73
2023-03-19T02:25:14.703Z,10.63
2023-03-19T02:29:16.629Z,12.03
2023-03-19T02:33:18.956Z,11.23
2023-03-19T02:37:27.571Z,11.60
2023-03-19T02:41:30.040Z,11.40
2023-03-19T02:45:32.271Z,12.07
2023-03-19T02:49:34.152Z,12.57
2023-03-19T02:53:36.236Z,12.10
2023-03-19T02:57:38.050Z,12.20
2023-03-19T03:01:40.043Z,11.87
2023-03-19T03:05:48.658Z,11.07
2023-03-19T03:09:56.982Z,11.17
2023-03-19T03:14:11.650Z,11.40
2023-03-19T03:18:19.697Z,11.27
2023-03-19T03:22:27.725Z,11.40
2023-03-19T03:26:35.945Z,12.07
2023-03-19T03:30:38.216Z,12.23
2023-03-19T03:34:41.163Z,11.20
2023-03-19T03:38:42.973Z,11.27
2023-03-19T03:42:44.899Z,10.93
2023-03-19T03:46:46.774Z,11.40
2023-03-19T03:50:50.833Z,11.17
2023-03-19T03:54:52.855Z,10.77
2023-03-19T03:58:55.826Z,10.67
2023-03-19T04:02:57.735Z,10.83
2023-03-19T04:06:59.856Z,10.17
2023-03-19T04:11:07.190Z,11.70
2023-03-19T04:15:10.984Z,11.20
2023-03-19T04:19:12.814Z,11.27
2023-03-19T04:23:14.774Z,11.40
2023-03-19T04:27:16.655Z,10.90
2023-03-19T04:31:18.527Z,10.87
2023-03-19T04:35:21.597Z,11.40
2023-03-19T04:39:24.408Z,10.87
2023-03-19T04:43:26.237Z,10.33
2023-03-19T04:47:28.085Z,11.07
2023-03-19T04:51:29.896Z,10.67
2023-03-19T04:55:32.507Z,11.60
2023-03-19T04:59:34.358Z,11.70
2023-03-19T05:03:36.299Z,10.73
2023-03-19T05:07:38.118Z,10.73
2023-03-19T05:11:40.004Z,10.63
2023-03-19T05:15:43.666Z,10.43
2023-03-19T05:19:45.963Z,10.03
2023-03-19T05:23:57.194Z,9.47
2023-03-19T05:28:03.517Z,9.30
2023-03-19T05:32:07.105Z,9.80
2023-03-19T05:36:11.922Z,9.97
2023-03-19T05:40:18.454Z,10.57
2023-03-19T05:44:21.351Z,9.20
2023-03-19T05:48:23.603Z,9.00
2023-03-19T05:52:25.705Z,10.43
2023-03-19T05:56:27.776Z,10.10
2023-03-19T06:00:29.807Z,11.07
2023-03-19T06:04:31.769Z,10.03
2023-03-19T06:08:34.130Z,11.37
2023-03-19T06:12:36.327Z,10.10
2023-03-19T06:16:38.547Z,10.40
2023-03-19T06:20:40.455Z,10.33
2023-03-19T06:24:44.753Z,10.40
2023-03-19T06:28:46.954Z,9.23
2023-03-19T06:32:49.058Z,9.07
2023-03-19T06:36:51.082Z,11.03
2023-03-19T06:40:53.081Z,9.83
2023-03-19T06:44:54.866Z,10.03
2023-03-19T06:48:59.817Z,10.47
2023-03-19T06:53:04.514Z,11.13
2023-03-19T06:57:06.633Z,11.30
2023-03-19T07:01:09.224Z,10.80
2023-03-19T07:05:11.245Z,10.30
2023-03-19T07:09:13.284Z,10.43
2023-03-19T07:13:15.523Z,10.50
2023-03-19T07:17:17.466Z,10.97
2023-03-19T07:21:19.333Z,10.27
2023-03-19T07:25:21.462Z,10.73
2023-03-19T07:29:24.073Z,10.97
2023-03-19T07:33:26.350Z,11.17
2023-03-19T07:37:28.678Z,10.80
2023-03-19T07:41:34.001Z,10.70
2023-03-19T07:45:36.806Z,10.30
2023-03-19T07:49:40.240Z,11.27
2023-03-19T07:53:44.870Z,10.23
2023-03-19T07:57:46.826Z,10.27
2023-03-19T08:01:49.322Z,9.90
2023-03-19T08:05:52.784Z,10.43
2023-03-19T08:09:55.116Z,10.63
2023-03-19T08:14:00.826Z,9.43
2023-03-19T08:18:04.979Z,9.53
2023-03-19T08:22:07.504Z,10.23
2023-03-19T08:26:09.447Z,10.17
2023-03-19T08:30:12.701Z,9.93
2023-03-19T08:34:17.585Z,10.60
2023-03-19T08:38:20.129Z,9.67
2023-03-19T08:42:22.744Z,9.77
2023-03-19T08:46:29.100Z,10.20
2023-03-19T08:50:32.630Z,10.17
2023-03-19T08:54:37.800Z,9.90
2023-03-19T08:58:41.626Z,10.63
2023-03-19T09:02:43.820Z,10.20
2023-03-19T09:06:53.047Z,9.70
2023-03-19T09:10:56.452Z,10.27
2023-03-19T09:15:01.313Z,10.23
2023-03-19T09:19:03.222Z,10.77
2023-03-19T09:23:05.466Z,10.17
2023-03-19T09:27:07.327Z,10.20
2023-03-19T09:31:11.657Z,9.87
2023-03-19T09:35:13.887Z,10.73
2023-03-19T09:39:18.382Z,10.70
2023-03-19T09:44:21.606Z,9.60
2023-03-19T09:48:36.203Z,10.37
2023-03-19T09:53:00.330Z,10.47
2023-03-19T09:57:02.663Z,9.97
2023-03-19T10:01:05.072Z,10.43
2023-03-19T10:05:22.738Z,10.00
2023-03-19T10:09:58.097Z,10.37
2023-03-19T10:14:33.063Z,10.03
2023-03-19T10:18:36.266Z,10.20
2023-03-19T10:22:46.424Z,10.67
2023-03-19T10:26:48.471Z,10.17
2023-03-19T10:31:21.271Z,10.47
2023-03-19T10:35:28.947Z,9.87
2023-03-19T10:39:39.741Z,10.27
2023-03-19T10:44:11.874Z,10.20
2023-03-19T10:48:22.559Z,10.40
2023-03-19T10:52:32.097Z,9.97
2023-03-19T10:56:41.060Z,9.90
2023-03-19T11:01:28.504Z,10.50
2023-03-19T11:05:36.788Z,10.40
2023-03-19T11:09:58.761Z,9.93
2023-03-19T11:14:33.614Z,9.87
2023-03-19T11:18:47.322Z,11.13
2023-03-19T11:23:04.744Z,10.53
2023-03-19T11:27:08.349Z,10.17
2023-03-19T11:31:27.577Z,10.77
2023-03-19T11:35:54.989Z,10.20
2023-03-19T11:40:47.917Z,11.27
2023-03-19T11:45:39.193Z,9.80
2023-03-19T11:49:54.474Z,10.60
2023-03-19T11:54:40.827Z,10.53
2023-03-19T11:58:53.764Z,10.57
2023-03-19T12:03:15.402Z,9.87
2023-03-19T12:07:26.608Z,10.97
2023-03-19T12:11:45.546Z,10.47
2023-03-19T12:16:02.362Z,9.90
2023-03-19T12:20:27.895Z,10.07
2023-03-19T12:24:57.823Z,10.33
2023-03-19T12:29:18.602Z,10.47
2023-03-19T12:34:01.831Z,10.30
2023-03-19T12:38:17.649Z,9.67
2023-03-19T12:42:20.148Z,9.97
2023-03-19T12:46:34.525Z,11.20
2023-03-19T12:50:38.302Z,10.17
2023-03-19T12:55:00.663Z,9.97
2023-03-19T12:59:57.606Z,10.30
2023-03-19T13:04:24.720Z,10.00
2023-03-19T13:09:17.690Z,11.00
2023-03-19T13:13:46.524Z,10.00
2023-03-19T13:18:17.990Z,10.57
2023-03-19T13:22:28.517Z,9.83
2023-03-19T13:26:31.150Z,10.70
2023-03-19T13:30:33.314Z,10.63
2023-03-19T13:34:36.978Z,10.90
2023-03-19T13:38:51.991Z,10.43
2023-03-19T13:42:57.690Z,10.80
2023-03-19T13:47:23.228Z,11.07
2023-03-19T13:51:27.073Z,11.57
2023-03-19T13:55:34.437Z,11.33
2023-03-19T13:59:36.979Z,10.57
2023-03-19T14:04:03.080Z,11.17
2023-03-19T14:08:17.298Z,11.03
2023-03-19T14:12:21.367Z,11.00
2023-03-19T14:16:26.722Z,11.60
2023-03-19T14:20:53.866Z,11.47
2023-03-19T14:25:19.648Z,11.00
2023-03-19T14:29:21.600Z,10.27
2023-03-19T14:33:33.067Z,11.40
2023-03-19T14:37:49.074Z,10.50
2023-03-19T14:41:59.425Z,11.23
2023-03-19T14:46:04.237Z,10.70
2023-03-19T14:50:41.475Z,11.27
2023-03-19T14:54:58.739Z,10.67
2023-03-19T14:59:07.872Z,11.67
2023-03-19T15:03:37.279Z,11.00
2023-03-19T15:07:48.614Z,11.17
2023-03-19T15:12:33.722Z,10.57
2023-03-19T15:16:57.495Z,10.17
2023-03-19T15:21:24.559Z,10.20
2023-03-19T15:25:39.704Z,10.37
2023-03-19T15:29:41.807Z,8.37
2023-03-19T15:33:46.224Z,5.40
2023-03-19T15:37:52.151Z,2.80
2023-03-19T15:41:54.355Z,2.27
2023-03-19T15:45:59.454Z,2.30
2023-03-19T15:50:14.713Z,2.27
2023-03-19T15:54:16.658Z,2.70
2023-03-19T15:58:31.253Z,2.67
2023-03-19T16:02:34.949Z,2.27
2023-03-19T16:06:39.685Z,2.43
2023-03-19T16:10:45.762Z,2.77
2023-03-19T16:14:47.595Z,2.60
2023-03-19T16:18:55.509Z,2.80
2023-03-19T16:23:00.374Z,2.70
2023-03-19T16:27:08.949Z,2.17
2023-03-19T16:31:24.339Z,2.30
2023-03-19T16:35:27.184Z,2.10
2023-03-19T16:39:37.327Z,2.50
2023-03-19T16:43:40.467Z,2.53
2023-03-19T16:48:03.531Z,2.57
2023-03-19T16:52:05.698Z,2.67
2023-03-19T16:56:09.508Z,2.83
2023-03-19T17:00:15.072Z,3.03
2023-03-19T17:04:17.809Z,2.50
2023-03-19T17:08:21.912Z,2.50
2023-03-19T17:12:24.432Z,2.80
2023-03-19T17:16:29.563Z,2.80
2023-03-19T17:20:36.487Z,3.10
2023-03-19T17:24:41.538Z,3.30
2023-03-19T17:28:43.702Z,3.23
2023-03-19T17:32:51.245Z,3.00
2023-03-19T17:37:02.454Z,2.10
2023-03-19T17:41:21.165Z,2.40
2023-03-19T17:45:29.915Z,2.30
2023-03-19T17:49:34.185Z,2.73
2023-03-19T17:53:39.104Z,2.30
2023-03-19T17:57:41.561Z,2.07
2023-03-19T18:01:43.752Z,2.47
2023-03-19T18:05:53.788Z,2.10
2023-03-19T18:09:58.503Z,2.00
2023-03-19T18:14:06.113Z,2.53
2023-03-19T18:18:13.924Z,2.60
2023-03-19T18:22:22.935Z,2.73
2023-03-19T18:26:26.071Z,3.40
2023-03-19T18:30:29.789Z,3.13
2023-03-19T18:34:37.476Z,3.10
2023-03-19T18:38:39.664Z,3.33
2023-03-19T18:42:56.471Z,3.00
2023-03-19T18:46:59.596Z,2.97
2023-03-19T18:51:12.398Z,2.90
2023-03-19T18:55:17.624Z,3.07
2023-03-19T18:59:32.164Z,3.07
2023-03-19T19:03:37.931Z,3.27
2023-03-19T19:07:47.059Z,3.43
2023-03-19T19:11:49.034Z,3.13
2023-03-19T19:15:59.967Z,3.77
2023-03-19T19:20:03.099Z,3.80
2023-03-19T19:24:08.570Z,3.60
2023-03-19T19:28:26.730Z,3.80
2023-03-19T19:32:32.000Z,3.43
2023-03-19T19:36:37.160Z,3.53
2023-03-19T19:40:40.350Z,4.20
2023-03-19T19:44:43.975Z,4.20
2023-03-19T19:48:48.529Z,5.07
2023-03-19T19:52:50.682Z,5.00
2023-03-19T19:57:03.914Z,4.80
2023-03-19T20:01:30.048Z,5.07
2023-03-19T20:05:34.906Z,4.43
2023-03-19T20:09:37.040Z,5.40
2023-03-19T20:13:41.325Z,4.70
2023-03-19T20:17:44.034Z,4.27
2023-03-19T20:21:46.214Z,4.83
2023-03-19T20:25:52.473Z,4.60
2023-03-19T20:29:57.347Z,5.27
2023-03-19T20:34:02.468Z,4.80
2023-03-19T20:38:06.297Z,5.63
2023-03-19T20:42:15.208Z,5.90
2023-03-19T20:46:21.564Z,5.90
2023-03-19T20:50:29.840Z,5.87
2023-03-19T20:54:32.278Z,5.67
2023-03-19T20:58:36.847Z,5.83
2023-03-19T21:02:41.077Z,6.17
2023-03-19T21:06:53.058Z,5.57
2023-03-19T21:10:56.011Z,6.07
2023-03-19T21:15:00.325Z,6.70
2023-03-19T21:19:07.827Z,6.67
2023-03-19T21:23:32.090Z,5.70
2023-03-19T21:27:36.311Z,6.23
2023-03-19T21:31:39.404Z,6.43
2023-03-19T21:35:41.746Z,6.57
2023-03-19T21:39:44.057Z,6.70
2023-03-19T21:43:52.882Z,6.60
2023-03-19T21:48:34.633Z,6.13
2023-03-19T21:52:53.667Z,5.87
2023-03-19T21:56:58.613Z,5.90
2023-03-19T22:01:01.193Z,5.60
2023-03-19T22:05:03.831Z,5.30
2023-03-19T22:09:06.020Z,5.40
2023-03-19T22:13:26.429Z,6.10
2023-03-19T22:17:32.180Z,6.00
2023-03-19T22:21:34.016Z,5.60
2023-03-19T22:25:39.964Z,5.03
2023-03-19T22:29:47.109Z,5.70
2023-03-19T22:33:49.002Z,5.23
2023-03-19T22:37:51.069Z,5.40
2023-03-19T22:41:53.197Z,5.10
2023-03-19T22:45:59.228Z,4.83
2023-03-19T22:50:01.233Z,5.40
2023-03-19T22:54:05.329Z,5.40
2023-03-19T22:58:07.502Z,4.70
2023-03-19T23:02:14.245Z,4.33
2023-03-19T23:06:29.768Z,4.30
2023-03-19T23:10:32.831Z,4.40
2023-03-19T23:14:34.828Z,4.20
2023-03-19T23:18:37.082Z,4.33
2023-03-19T23:22:38.983Z,4.53
2023-03-19T23:26:46.712Z,6.10
2023-03-19T23:30:50.348Z,6.13
2023-03-19T23:35:00.524Z,6.07
2023-03-19T23:39:04.668Z,4.47
2023-03-19T23:43:07.537Z,5.80
2023-03-19T23:47:09.435Z,6.50
2023-03-19T23:51:14.944Z,7.43
2023-03-19T23:55:17.124Z,7.67
2023-03-19T23:59:18.977Z,5.10
